sensor_id;sensor_type;location;lat;lon;timestamp;temperature;humidity
12746;DHT22;6437;53.686;10.030;2023-02-08T00:00:44;0.50;99.90
12746;DHT22;6437;53.686;10.030;2023-02-08T00:03:47;0.50;99.90
12746;DHT22;6437;53.686;10.030;2023-02-08T00:06:48;0.40;99.90
12746;DHT22;6437;53.686;10.030;2023-02-08T00:09:50;0.40;99.90
12746;DHT22;6437;53.686;10.030;2023-02-08T00:12:53;0.40;99.90
12746;DHT22;6437;53.686;10.030;2023-02-08T00:15:55;0.40;99.90
12746;DHT22;6437;53.686;10.030;2023-02-08T00:18:56;0.40;99.90
12746;DHT22;6437;53.686;10.030;2023-02-08T00:21:58;0.40;99.90
12746;DHT22;6437;53.686;10.030;2023-02-08T00:25:00;0.40;99.90
12746;DHT22;6437;53.686;10.030;2023-02-08T00:28:04;0.40;99.90
12746;DHT22;6437;53.686;10.030;2023-02-08T00:31:06;0.40;99.90
12746;DHT22;6437;53.686;10.030;2023-02-08T00:34:08;0.40;99.90
12746;DHT22;6437;53.686;10.030;2023-02-08T00:37:09;-0.20;99.90
12746;DHT22;6437;53.686;10.030;2023-02-08T00:40:11;0.40;99.90
12746;DHT22;6437;53.686;10.030;2023-02-08T00:43:14;0.30;99.90
12746;DHT22;6437;53.686;10.030;2023-02-08T00:46:16;0.30;99.90
12746;DHT22;6437;53.686;10.030;2023-02-08T00:49:18;0.30;99.90
12746;DHT22;6437;53.686;10.030;2023-02-08T00:52:20;0.30;99.90
12746;DHT22;6437;53.686;10.030;2023-02-08T00:55:22;0.30;99.90
12746;DHT22;6437;53.686;10.030;2023-02-08T00:58:25;0.30;99.90
12746;DHT22;6437;53.686;10.030;2023-02-08T01:01:27;0.30;99.90
12746;DHT22;6437;53.686;10.030;2023-02-08T01:04:28;0.30;99.90
12746;DHT22;6437;53.686;10.030;2023-02-08T01:07:30;0.30;99.90
12746;DHT22;6437;53.686;10.030;2023-02-08T01:10:32;0.30;99.90
12746;DHT22;6437;53.686;10.030;2023-02-08T01:13:37;0.30;99.90
12746;DHT22;6437;53.686;10.030;2023-02-08T01:16:39;0.30;99.90
12746;DHT22;6437;53.686;10.030;2023-02-08T01:19:40;-0.20;99.90
12746;DHT22;6437;53.686;10.030;2023-02-08T01:22:42;0.20;99.90
12746;DHT22;6437;53.686;10.030;2023-02-08T01:25:44;0.20;99.90
12746;DHT22;6437;53.686;10.030;2023-02-08T01:28:47;0.20;99.90
12746;DHT22;6437;53.686;10.030;2023-02-08T01:31:50;0.20;99.90
12746;DHT22;6437;53.686;10.030;2023-02-08T01:34:51;0.20;99.90
12746;DHT22;6437;53.686;10.030;2023-02-08T01:37:53;0.10;99.90
12746;DHT22;6437;53.686;10.030;2023-02-08T01:40:55;0.20;99.90
12746;DHT22;6437;53.686;10.030;2023-02-08T01:44:05;0.10;99.90
12746;DHT22;6437;53.686;10.030;2023-02-08T01:47:07;0.10;99.90
12746;DHT22;6437;53.686;10.030;2023-02-08T01:50:10;0.10;99.90
12746;DHT22;6437;53.686;10.030;2023-02-08T01:53:12;0.10;99.90
12746;DHT22;6437;53.686;10.030;2023-02-08T01:56:19;0.10;99.90
12746;DHT22;6437;53.686;10.030;2023-02-08T01:59:24;0.10;99.90
12746;DHT22;6437;53.686;10.030;2023-02-08T02:02:27;0.10;99.90
12746;DHT22;6437;53.686;10.030;2023-02-08T02:05:33;0.10;99.90
12746;DHT22;6437;53.686;10.030;2023-02-08T02:08:36;0.10;99.90
12746;DHT22;6437;53.686;10.030;2023-02-08T02:11:38;0.00;99.90
12746;DHT22;6437;53.686;10.030;2023-02-08T02:14:42;0.00;99.90
12746;DHT22;6437;53.686;10.030;2023-02-08T02:17:45;0.00;99.90
12746;DHT22;6437;53.686;10.030;2023-02-08T02:21:08;0.00;99.90
12746;DHT22;6437;53.686;10.030;2023-02-08T02:28:11;-0.10;99.90
12746;DHT22;6437;53.686;10.030;2023-02-08T02:31:32;-0.10;99.90
12746;DHT22;6437;53.686;10.030;2023-02-08T02:34:42;-0.10;99.90
12746;DHT22;6437;53.686;10.030;2023-02-08T02:37:51;-0.20;99.90
12746;DHT22;6437;53.686;10.030;2023-02-08T02:41:01;-0.10;99.90
12746;DHT22;6437;53.686;10.030;2023-02-08T02:44:11;-0.10;99.90
12746;DHT22;6437;53.686;10.030;2023-02-08T02:47:22;-0.10;99.90
12746;DHT22;6437;53.686;10.030;2023-02-08T02:50:31;-0.10;99.90
12746;DHT22;6437;53.686;10.030;2023-02-08T02:53:37;-0.10;99.90
12746;DHT22;6437;53.686;10.030;2023-02-08T02:56:44;-0.20;99.90
12746;DHT22;6437;53.686;10.030;2023-02-08T02:59:46;-0.20;99.90
12746;DHT22;6437;53.686;10.030;2023-02-08T03:02:50;-0.20;99.90
12746;DHT22;6437;53.686;10.030;2023-02-08T03:05:54;-0.30;99.90
12746;DHT22;6437;53.686;10.030;2023-02-08T03:09:06;-0.30;99.90
12746;DHT22;6437;53.686;10.030;2023-02-08T03:12:23;-0.30;99.90
12746;DHT22;6437;53.686;10.030;2023-02-08T03:15:31;-0.30;99.90
12746;DHT22;6437;53.686;10.030;2023-02-08T03:18:46;-0.30;99.90
12746;DHT22;6437;53.686;10.030;2023-02-08T03:21:55;-0.30;99.90
12746;DHT22;6437;53.686;10.030;2023-02-08T03:25:02;-0.30;99.90
12746;DHT22;6437;53.686;10.030;2023-02-08T03:28:12;-0.30;99.90
12746;DHT22;6437;53.686;10.030;2023-02-08T03:31:20;-0.30;99.90
12746;DHT22;6437;53.686;10.030;2023-02-08T03:34:30;-0.40;99.90
12746;DHT22;6437;53.686;10.030;2023-02-08T03:37:37;-0.40;99.90
12746;DHT22;6437;53.686;10.030;2023-02-08T03:40:42;-0.40;99.90
12746;DHT22;6437;53.686;10.030;2023-02-08T03:43:49;-0.40;99.90
12746;DHT22;6437;53.686;10.030;2023-02-08T03:46:56;-0.40;99.90
12746;DHT22;6437;53.686;10.030;2023-02-08T03:50:03;-0.40;99.90
12746;DHT22;6437;53.686;10.030;2023-02-08T03:53:06;-0.50;99.90
12746;DHT22;6437;53.686;10.030;2023-02-08T03:56:27;-0.50;99.90
12746;DHT22;6437;53.686;10.030;2023-02-08T03:59:33;-0.50;99.90
12746;DHT22;6437;53.686;10.030;2023-02-08T04:02:41;-0.40;99.90
12746;DHT22;6437;53.686;10.030;2023-02-08T04:05:46;-0.50;99.90
12746;DHT22;6437;53.686;10.030;2023-02-08T04:08:48;-0.50;99.90
12746;DHT22;6437;53.686;10.030;2023-02-08T04:11:50;-0.60;99.90
12746;DHT22;6437;53.686;10.030;2023-02-08T04:14:51;0.10;99.90
12746;DHT22;6437;53.686;10.030;2023-02-08T04:17:53;-0.50;99.90
12746;DHT22;6437;53.686;10.030;2023-02-08T04:20:57;-0.60;99.90
12746;DHT22;6437;53.686;10.030;2023-02-08T04:23:58;-0.60;99.90
12746;DHT22;6437;53.686;10.030;2023-02-08T04:27:00;-0.60;99.90
12746;DHT22;6437;53.686;10.030;2023-02-08T04:30:03;-0.60;99.90
12746;DHT22;6437;53.686;10.030;2023-02-08T04:33:04;-0.60;99.90
12746;DHT22;6437;53.686;10.030;2023-02-08T04:36:08;-0.60;99.90
12746;DHT22;6437;53.686;10.030;2023-02-08T04:39:09;-0.60;99.90
12746;DHT22;6437;53.686;10.030;2023-02-08T04:42:11;-0.60;99.90
12746;DHT22;6437;53.686;10.030;2023-02-08T04:45:13;-0.70;99.90
12746;DHT22;6437;53.686;10.030;2023-02-08T04:48:15;-0.70;99.90
12746;DHT22;6437;53.686;10.030;2023-02-08T04:51:18;-0.70;99.90
12746;DHT22;6437;53.686;10.030;2023-02-08T04:54:20;-0.70;99.90
12746;DHT22;6437;53.686;10.030;2023-02-08T04:57:22;-0.70;99.90
12746;DHT22;6437;53.686;10.030;2023-02-08T05:00:23;-0.70;99.90
12746;DHT22;6437;53.686;10.030;2023-02-08T05:03:25;-0.70;99.90
12746;DHT22;6437;53.686;10.030;2023-02-08T05:06:28;-0.70;99.90
12746;DHT22;6437;53.686;10.030;2023-02-08T05:09:30;-0.80;99.90
12746;DHT22;6437;53.686;10.030;2023-02-08T05:12:32;-0.80;99.90
12746;DHT22;6437;53.686;10.030;2023-02-08T05:15:33;-0.80;99.90
12746;DHT22;6437;53.686;10.030;2023-02-08T05:18:35;-0.80;99.90
12746;DHT22;6437;53.686;10.030;2023-02-08T05:21:38;-0.80;99.90
12746;DHT22;6437;53.686;10.030;2023-02-08T05:24:40;-0.80;99.90
12746;DHT22;6437;53.686;10.030;2023-02-08T05:27:42;0.00;99.90
12746;DHT22;6437;53.686;10.030;2023-02-08T05:30:44;-0.80;99.90
12746;DHT22;6437;53.686;10.030;2023-02-08T05:33:46;-0.80;99.90
12746;DHT22;6437;53.686;10.030;2023-02-08T05:36:50;-0.80;99.90
12746;DHT22;6437;53.686;10.030;2023-02-08T05:39:51;-0.90;99.90
12746;DHT22;6437;53.686;10.030;2023-02-08T05:42:53;-0.90;99.90
12746;DHT22;6437;53.686;10.030;2023-02-08T05:45:55;-0.50;99.90
12746;DHT22;6437;53.686;10.030;2023-02-08T05:48:57;-0.90;99.90
12746;DHT22;6437;53.686;10.030;2023-02-08T05:52:00;-0.90;99.90
12746;DHT22;6437;53.686;10.030;2023-02-08T05:55:01;-0.90;99.90
12746;DHT22;6437;53.686;10.030;2023-02-08T05:58:03;-0.90;99.90
12746;DHT22;6437;53.686;10.030;2023-02-08T06:01:07;-0.90;99.90
12746;DHT22;6437;53.686;10.030;2023-02-08T06:04:10;-0.90;99.90
12746;DHT22;6437;53.686;10.030;2023-02-08T06:07:13;-0.90;99.90
12746;DHT22;6437;53.686;10.030;2023-02-08T06:10:15;-0.90;99.90
12746;DHT22;6437;53.686;10.030;2023-02-08T06:13:16;-0.90;99.90
12746;DHT22;6437;53.686;10.030;2023-02-08T06:16:18;-0.90;99.90
12746;DHT22;6437;53.686;10.030;2023-02-08T06:19:20;-0.90;99.90
12746;DHT22;6437;53.686;10.030;2023-02-08T06:22:23;-0.90;99.90
12746;DHT22;6437;53.686;10.030;2023-02-08T06:25:25;-0.90;99.90
12746;DHT22;6437;53.686;10.030;2023-02-08T06:28:26;-0.90;99.90
12746;DHT22;6437;53.686;10.030;2023-02-08T06:31:28;-0.90;99.90
12746;DHT22;6437;53.686;10.030;2023-02-08T06:34:30;-0.90;99.90
12746;DHT22;6437;53.686;10.030;2023-02-08T06:37:33;-1.30;99.90
12746;DHT22;6437;53.686;10.030;2023-02-08T06:40:35;-0.90;99.90
12746;DHT22;6437;53.686;10.030;2023-02-08T06:43:36;-1.00;99.90
12746;DHT22;6437;53.686;10.030;2023-02-08T06:46:39;-1.00;99.90
12746;DHT22;6437;53.686;10.030;2023-02-08T06:49:41;-1.00;99.90
12746;DHT22;6437;53.686;10.030;2023-02-08T06:52:44;-1.00;99.90
12746;DHT22;6437;53.686;10.030;2023-02-08T06:55:47;-1.00;99.90
12746;DHT22;6437;53.686;10.030;2023-02-08T06:58:49;-1.00;99.90
12746;DHT22;6437;53.686;10.030;2023-02-08T07:01:51;-1.10;99.90
12746;DHT22;6437;53.686;10.030;2023-02-08T07:04:52;-1.10;99.90
12746;DHT22;6437;53.686;10.030;2023-02-08T07:07:55;-1.00;99.90
12746;DHT22;6437;53.686;10.030;2023-02-08T07:10:57;-1.10;99.90
12746;DHT22;6437;53.686;10.030;2023-02-08T07:13:59;-1.10;99.90
12746;DHT22;6437;53.686;10.030;2023-02-08T07:17:01;-1.10;99.90
12746;DHT22;6437;53.686;10.030;2023-02-08T07:20:03;-1.00;99.90
12746;DHT22;6437;53.686;10.030;2023-02-08T07:23:07;-1.00;99.90
12746;DHT22;6437;53.686;10.030;2023-02-08T07:26:10;-1.00;99.90
12746;DHT22;6437;53.686;10.030;2023-02-08T07:29:13;-1.00;99.90
12746;DHT22;6437;53.686;10.030;2023-02-08T07:32:15;-1.00;99.90
12746;DHT22;6437;53.686;10.030;2023-02-08T07:35:17;-1.00;99.90
12746;DHT22;6437;53.686;10.030;2023-02-08T07:38:20;-1.00;99.90
12746;DHT22;6437;53.686;10.030;2023-02-08T07:41:22;-0.90;99.90
12746;DHT22;6437;53.686;10.030;2023-02-08T07:44:24;-0.90;99.90
12746;DHT22;6437;53.686;10.030;2023-02-08T07:47:26;-0.90;99.90
12746;DHT22;6437;53.686;10.030;2023-02-08T07:50:28;-0.90;99.90
12746;DHT22;6437;53.686;10.030;2023-02-08T07:53:31;-0.80;99.90
12746;DHT22;6437;53.686;10.030;2023-02-08T07:56:33;-0.80;99.90
12746;DHT22;6437;53.686;10.030;2023-02-08T07:59:34;-0.80;99.90
12746;DHT22;6437;53.686;10.030;2023-02-08T08:02:36;-0.90;99.90
12746;DHT22;6437;53.686;10.030;2023-02-08T08:05:39;-0.80;99.90
12746;DHT22;6437;53.686;10.030;2023-02-08T08:08:42;-0.80;99.90
12746;DHT22;6437;53.686;10.030;2023-02-08T08:11:46;-0.80;99.90
12746;DHT22;6437;53.686;10.030;2023-02-08T08:14:48;-0.70;99.90
12746;DHT22;6437;53.686;10.030;2023-02-08T08:17:50;-0.70;99.90
12746;DHT22;6437;53.686;10.030;2023-02-08T08:20:52;-0.60;99.90
12746;DHT22;6437;53.686;10.030;2023-02-08T08:23:55;-0.50;99.90
12746;DHT22;6437;53.686;10.030;2023-02-08T08:26:56;-0.50;99.90
12746;DHT22;6437;53.686;10.030;2023-02-08T08:29:58;-0.50;99.90
12746;DHT22;6437;53.686;10.030;2023-02-08T08:33:00;-0.50;99.90
12746;DHT22;6437;53.686;10.030;2023-02-08T08:36:02;-0.40;99.90
12746;DHT22;6437;53.686;10.030;2023-02-08T08:39:05;0.30;99.90
12746;DHT22;6437;53.686;10.030;2023-02-08T08:42:07;-0.30;99.90
12746;DHT22;6437;53.686;10.030;2023-02-08T08:45:09;-0.30;99.90
12746;DHT22;6437;53.686;10.030;2023-02-08T08:48:12;-0.30;99.90
12746;DHT22;6437;53.686;10.030;2023-02-08T08:51:13;-0.20;99.90
12746;DHT22;6437;53.686;10.030;2023-02-08T08:54:17;-0.20;99.90
12746;DHT22;6437;53.686;10.030;2023-02-08T08:57:19;-0.10;99.90
12746;DHT22;6437;53.686;10.030;2023-02-08T09:00:20;-0.10;99.90
12746;DHT22;6437;53.686;10.030;2023-02-08T09:03:22;0.00;99.90
12746;DHT22;6437;53.686;10.030;2023-02-08T09:06:24;0.00;99.90
12746;DHT22;6437;53.686;10.030;2023-02-08T09:09:27;0.10;99.90
12746;DHT22;6437;53.686;10.030;2023-02-08T09:12:29;0.10;99.90
12746;DHT22;6437;53.686;10.030;2023-02-08T09:15:30;0.20;99.90
12746;DHT22;6437;53.686;10.030;2023-02-08T09:18:32;0.20;99.90
12746;DHT22;6437;53.686;10.030;2023-02-08T09:21:34;0.30;99.90
12746;DHT22;6437;53.686;10.030;2023-02-08T09:24:37;0.30;99.90
12746;DHT22;6437;53.686;10.030;2023-02-08T09:27:39;0.40;99.90
12746;DHT22;6437;53.686;10.030;2023-02-08T09:30:41;0.40;99.90
12746;DHT22;6437;53.686;10.030;2023-02-08T09:33:44;0.50;99.90
12746;DHT22;6437;53.686;10.030;2023-02-08T09:36:46;0.50;99.90
12746;DHT22;6437;53.686;10.030;2023-02-08T09:39:49;0.60;99.90
12746;DHT22;6437;53.686;10.030;2023-02-08T09:42:58;0.60;99.90
12746;DHT22;6437;53.686;10.030;2023-02-08T09:46:09;0.70;99.90
12746;DHT22;6437;53.686;10.030;2023-02-08T09:49:16;0.80;99.90
12746;DHT22;6437;53.686;10.030;2023-02-08T09:52:23;0.90;99.90
12746;DHT22;6437;53.686;10.030;2023-02-08T09:55:33;0.90;99.90
12746;DHT22;6437;53.686;10.030;2023-02-08T09:58:38;1.00;99.90
12746;DHT22;6437;53.686;10.030;2023-02-08T10:01:41;1.10;99.90
12746;DHT22;6437;53.686;10.030;2023-02-08T10:04:54;1.20;99.90
12746;DHT22;6437;53.686;10.030;2023-02-08T10:07:57;1.30;99.90
12746;DHT22;6437;53.686;10.030;2023-02-08T10:11:11;1.30;99.90
12746;DHT22;6437;53.686;10.030;2023-02-08T10:14:32;1.40;99.90
12746;DHT22;6437;53.686;10.030;2023-02-08T10:17:59;1.50;99.90
12746;DHT22;6437;53.686;10.030;2023-02-08T10:21:23;1.60;99.90
12746;DHT22;6437;53.686;10.030;2023-02-08T10:24:40;1.60;99.90
12746;DHT22;6437;53.686;10.030;2023-02-08T10:28:01;1.70;99.90
12746;DHT22;6437;53.686;10.030;2023-02-08T10:31:13;1.70;99.90
12746;DHT22;6437;53.686;10.030;2023-02-08T10:34:27;1.80;99.90
12746;DHT22;6437;53.686;10.030;2023-02-08T10:37:32;1.90;99.90
12746;DHT22;6437;53.686;10.030;2023-02-08T10:40:37;2.00;99.90
12746;DHT22;6437;53.686;10.030;2023-02-08T10:43:43;2.00;99.90
12746;DHT22;6437;53.686;10.030;2023-02-08T10:46:49;2.10;99.90
12746;DHT22;6437;53.686;10.030;2023-02-08T10:49:58;2.20;99.90
12746;DHT22;6437;53.686;10.030;2023-02-08T10:53:03;2.30;99.90
12746;DHT22;6437;53.686;10.030;2023-02-08T10:56:08;2.40;99.90
12746;DHT22;6437;53.686;10.030;2023-02-08T10:59:19;2.60;99.90
12746;DHT22;6437;53.686;10.030;2023-02-08T11:02:22;2.80;99.90
12746;DHT22;6437;53.686;10.030;2023-02-08T11:05:31;3.00;99.90
12746;DHT22;6437;53.686;10.030;2023-02-08T11:08:53;3.20;99.90
12746;DHT22;6437;53.686;10.030;2023-02-08T11:11:56;3.40;99.90
12746;DHT22;6437;53.686;10.030;2023-02-08T11:15:00;3.60;99.90
12746;DHT22;6437;53.686;10.030;2023-02-08T11:18:03;3.90;99.90
12746;DHT22;6437;53.686;10.030;2023-02-08T11:21:07;4.10;99.90
12746;DHT22;6437;53.686;10.030;2023-02-08T11:24:24;4.30;99.90
12746;DHT22;6437;53.686;10.030;2023-02-08T11:27:32;4.60;99.90
12746;DHT22;6437;53.686;10.030;2023-02-08T11:30:35;4.80;99.90
12746;DHT22;6437;53.686;10.030;2023-02-08T11:33:37;5.10;99.90
12746;DHT22;6437;53.686;10.030;2023-02-08T11:36:44;5.30;99.90
12746;DHT22;6437;53.686;10.030;2023-02-08T11:39:49;5.60;99.90
12746;DHT22;6437;53.686;10.030;2023-02-08T11:42:53;5.90;99.90
12746;DHT22;6437;53.686;10.030;2023-02-08T11:45:58;6.20;99.90
12746;DHT22;6437;53.686;10.030;2023-02-08T11:49:01;6.40;99.90
12746;DHT22;6437;53.686;10.030;2023-02-08T11:52:04;6.70;99.90
12746;DHT22;6437;53.686;10.030;2023-02-08T11:55:11;6.90;99.90
12746;DHT22;6437;53.686;10.030;2023-02-08T11:58:19;7.20;99.90
12746;DHT22;6437;53.686;10.030;2023-02-08T12:01:27;7.40;99.90
12746;DHT22;6437;53.686;10.030;2023-02-08T12:04:29;7.70;99.90
12746;DHT22;6437;53.686;10.030;2023-02-08T12:07:40;7.80;99.90
12746;DHT22;6437;53.686;10.030;2023-02-08T12:11:09;8.10;99.90
12746;DHT22;6437;53.686;10.030;2023-02-08T12:14:40;8.30;99.90
12746;DHT22;6437;53.686;10.030;2023-02-08T12:18:10;8.50;99.90
12746;DHT22;6437;53.686;10.030;2023-02-08T12:21:18;8.70;99.90
12746;DHT22;6437;53.686;10.030;2023-02-08T12:24:27;9.00;99.90
12746;DHT22;6437;53.686;10.030;2023-02-08T12:27:38;9.20;99.90
12746;DHT22;6437;53.686;10.030;2023-02-08T12:30:47;9.50;99.90
12746;DHT22;6437;53.686;10.030;2023-02-08T12:34:03;9.90;99.90
12746;DHT22;6437;53.686;10.030;2023-02-08T12:37:18;10.20;99.90
12746;DHT22;6437;53.686;10.030;2023-02-08T12:40:46;10.50;99.90
12746;DHT22;6437;53.686;10.030;2023-02-08T12:43:56;10.80;99.90
12746;DHT22;6437;53.686;10.030;2023-02-08T12:47:06;10.90;99.60
12746;DHT22;6437;53.686;10.030;2023-02-08T12:50:20;11.00;99.50
12746;DHT22;6437;53.686;10.030;2023-02-08T12:53:29;11.10;98.00
12746;DHT22;6437;53.686;10.030;2023-02-08T12:56:36;11.10;97.30
12746;DHT22;6437;53.686;10.030;2023-02-08T12:59:41;11.00;96.70
12746;DHT22;6437;53.686;10.030;2023-02-08T13:02:50;10.90;96.00
12746;DHT22;6437;53.686;10.030;2023-02-08T13:05:58;10.80;95.50
12746;DHT22;6437;53.686;10.030;2023-02-08T13:09:02;10.70;95.50
12746;DHT22;6437;53.686;10.030;2023-02-08T13:12:12;10.50;95.30
12746;DHT22;6437;53.686;10.030;2023-02-08T13:15:19;10.50;95.30
12746;DHT22;6437;53.686;10.030;2023-02-08T13:18:24;10.20;95.60
12746;DHT22;6437;53.686;10.030;2023-02-08T13:21:32;10.30;95.00
12746;DHT22;6437;53.686;10.030;2023-02-08T13:24:39;10.30;94.70
12746;DHT22;6437;53.686;10.030;2023-02-08T13:27:42;10.30;94.90
12746;DHT22;6437;53.686;10.030;2023-02-08T13:30:45;10.30;94.80
12746;DHT22;6437;53.686;10.030;2023-02-08T13:33:55;10.30;94.30
12746;DHT22;6437;53.686;10.030;2023-02-08T13:37:00;10.30;93.50
12746;DHT22;6437;53.686;10.030;2023-02-08T13:40:05;10.20;93.30
12746;DHT22;6437;53.686;10.030;2023-02-08T13:43:20;10.20;92.80
12746;DHT22;6437;53.686;10.030;2023-02-08T13:46:26;10.20;92.80
12746;DHT22;6437;53.686;10.030;2023-02-08T13:49:50;10.20;93.10
12746;DHT22;6437;53.686;10.030;2023-02-08T13:52:54;10.30;92.20
12746;DHT22;6437;53.686;10.030;2023-02-08T13:55:58;10.30;92.70
12746;DHT22;6437;53.686;10.030;2023-02-08T13:59:00;10.20;92.20
12746;DHT22;6437;53.686;10.030;2023-02-08T14:02:24;10.20;92.20
12746;DHT22;6437;53.686;10.030;2023-02-08T14:05:47;10.40;91.80
12746;DHT22;6437;53.686;10.030;2023-02-08T14:08:57;10.10;92.00
12746;DHT22;6437;53.686;10.030;2023-02-08T14:12:10;10.10;92.20
12746;DHT22;6437;53.686;10.030;2023-02-08T14:15:38;10.10;91.90
12746;DHT22;6437;53.686;10.030;2023-02-08T14:18:50;10.20;91.80
12746;DHT22;6437;53.686;10.030;2023-02-08T14:22:00;10.20;91.30
12746;DHT22;6437;53.686;10.030;2023-02-08T14:25:07;10.20;91.40
12746;DHT22;6437;53.686;10.030;2023-02-08T14:28:24;10.00;91.30
12746;DHT22;6437;53.686;10.030;2023-02-08T14:31:38;9.90;91.40
12746;DHT22;6437;53.686;10.030;2023-02-08T14:34:41;9.70;92.30
12746;DHT22;6437;53.686;10.030;2023-02-08T14:37:47;9.50;92.40
12746;DHT22;6437;53.686;10.030;2023-02-08T14:40:51;9.10;92.50
12746;DHT22;6437;53.686;10.030;2023-02-08T14:43:53;9.20;93.20
12746;DHT22;6437;53.686;10.030;2023-02-08T14:46:55;9.00;93.30
12746;DHT22;6437;53.686;10.030;2023-02-08T14:50:03;9.10;93.40
12746;DHT22;6437;53.686;10.030;2023-02-08T14:53:26;9.10;93.40
12746;DHT22;6437;53.686;10.030;2023-02-08T14:56:34;9.10;93.30
12746;DHT22;6437;53.686;10.030;2023-02-08T14:59:36;9.00;93.40
12746;DHT22;6437;53.686;10.030;2023-02-08T15:02:40;8.90;93.40
12746;DHT22;6437;53.686;10.030;2023-02-08T15:05:57;8.70;93.60
12746;DHT22;6437;53.686;10.030;2023-02-08T15:09:04;8.50;93.80
12746;DHT22;6437;53.686;10.030;2023-02-08T15:12:14;8.30;94.30
12746;DHT22;6437;53.686;10.030;2023-02-08T15:15:22;8.30;94.60
12746;DHT22;6437;53.686;10.030;2023-02-08T15:18:28;8.20;94.80
12746;DHT22;6437;53.686;10.030;2023-02-08T15:21:31;7.90;94.90
12746;DHT22;6437;53.686;10.030;2023-02-08T15:24:36;7.90;95.00
12746;DHT22;6437;53.686;10.030;2023-02-08T15:27:47;7.80;95.40
12746;DHT22;6437;53.686;10.030;2023-02-08T15:30:53;7.60;95.30
12746;DHT22;6437;53.686;10.030;2023-02-08T15:33:57;7.50;95.60
12746;DHT22;6437;53.686;10.030;2023-02-08T15:37:00;7.40;95.80
12746;DHT22;6437;53.686;10.030;2023-02-08T15:40:03;7.30;95.80
12746;DHT22;6437;53.686;10.030;2023-02-08T15:43:12;7.20;95.90
12746;DHT22;6437;53.686;10.030;2023-02-08T15:46:18;7.10;96.10
12746;DHT22;6437;53.686;10.030;2023-02-08T15:49:25;7.00;96.40
12746;DHT22;6437;53.686;10.030;2023-02-08T15:52:32;6.90;96.70
12746;DHT22;6437;53.686;10.030;2023-02-08T15:55:42;6.70;96.90
12746;DHT22;6437;53.686;10.030;2023-02-08T15:58:50;6.70;97.20
12746;DHT22;6437;53.686;10.030;2023-02-08T16:01:55;6.60;97.40
12746;DHT22;6437;53.686;10.030;2023-02-08T16:04:59;6.60;97.60
12746;DHT22;6437;53.686;10.030;2023-02-08T16:08:01;6.50;97.80
12746;DHT22;6437;53.686;10.030;2023-02-08T16:11:07;6.00;98.00
12746;DHT22;6437;53.686;10.030;2023-02-08T16:14:14;6.20;98.70
12746;DHT22;6437;53.686;10.030;2023-02-08T16:17:31;6.10;98.70
12746;DHT22;6437;53.686;10.030;2023-02-08T16:20:34;6.00;99.10
12746;DHT22;6437;53.686;10.030;2023-02-08T16:23:37;5.90;99.20
12746;DHT22;6437;53.686;10.030;2023-02-08T16:26:41;5.80;99.40
12746;DHT22;6437;53.686;10.030;2023-02-08T16:29:46;5.70;99.70
12746;DHT22;6437;53.686;10.030;2023-02-08T16:32:48;5.60;99.90
12746;DHT22;6437;53.686;10.030;2023-02-08T16:35:51;5.50;99.90
12746;DHT22;6437;53.686;10.030;2023-02-08T16:39:34;5.50;99.90
12746;DHT22;6437;53.686;10.030;2023-02-08T16:42:37;5.40;99.90
12746;DHT22;6437;53.686;10.030;2023-02-08T16:45:41;5.30;99.90
12746;DHT22;6437;53.686;10.030;2023-02-08T16:48:44;5.20;99.90
12746;DHT22;6437;53.686;10.030;2023-02-08T16:51:48;5.20;99.90
12746;DHT22;6437;53.686;10.030;2023-02-08T16:54:52;5.10;99.90
12746;DHT22;6437;53.686;10.030;2023-02-08T16:57:56;5.10;99.90
12746;DHT22;6437;53.686;10.030;2023-02-08T17:00:59;5.00;99.90
12746;DHT22;6437;53.686;10.030;2023-02-08T17:04:01;4.70;99.90
12746;DHT22;6437;53.686;10.030;2023-02-08T17:07:02;4.80;99.90
12746;DHT22;6437;53.686;10.030;2023-02-08T17:10:15;4.70;99.90
12746;DHT22;6437;53.686;10.030;2023-02-08T17:13:17;4.70;99.90
12746;DHT22;6437;53.686;10.030;2023-02-08T17:16:22;4.60;99.90
12746;DHT22;6437;53.686;10.030;2023-02-08T17:19:24;4.40;99.90
12746;DHT22;6437;53.686;10.030;2023-02-08T17:22:26;4.50;99.90
12746;DHT22;6437;53.686;10.030;2023-02-08T17:25:29;4.50;99.90
12746;DHT22;6437;53.686;10.030;2023-02-08T17:28:33;4.50;99.90
12746;DHT22;6437;53.686;10.030;2023-02-08T17:31:42;4.40;99.90
12746;DHT22;6437;53.686;10.030;2023-02-08T17:34:45;4.40;99.90
12746;DHT22;6437;53.686;10.030;2023-02-08T17:37:47;4.30;99.90
12746;DHT22;6437;53.686;10.030;2023-02-08T17:40:51;4.30;99.90
12746;DHT22;6437;53.686;10.030;2023-02-08T17:43:55;4.20;99.90
12746;DHT22;6437;53.686;10.030;2023-02-08T17:46:58;4.20;99.90
12746;DHT22;6437;53.686;10.030;2023-02-08T17:50:00;4.20;99.90
12746;DHT22;6437;53.686;10.030;2023-02-08T17:53:02;4.10;99.90
12746;DHT22;6437;53.686;10.030;2023-02-08T17:56:04;4.10;99.90
12746;DHT22;6437;53.686;10.030;2023-02-08T17:59:07;4.00;99.90
12746;DHT22;6437;53.686;10.030;2023-02-08T18:02:10;4.00;99.90
12746;DHT22;6437;53.686;10.030;2023-02-08T18:05:12;4.00;99.90
12746;DHT22;6437;53.686;10.030;2023-02-08T18:08:14;4.00;99.90
12746;DHT22;6437;53.686;10.030;2023-02-08T18:11:18;3.90;99.90
12746;DHT22;6437;53.686;10.030;2023-02-08T18:14:20;3.90;99.90
12746;DHT22;6437;53.686;10.030;2023-02-08T18:17:24;3.30;99.90
12746;DHT22;6437;53.686;10.030;2023-02-08T18:20:25;3.80;99.90
12746;DHT22;6437;53.686;10.030;2023-02-08T18:23:27;3.80;99.90
12746;DHT22;6437;53.686;10.030;2023-02-08T18:26:30;3.70;99.90
12746;DHT22;6437;53.686;10.030;2023-02-08T18:29:33;3.70;99.90
12746;DHT22;6437;53.686;10.030;2023-02-08T18:32:36;3.70;99.90
12746;DHT22;6437;53.686;10.030;2023-02-08T18:35:38;3.70;99.90
12746;DHT22;6437;53.686;10.030;2023-02-08T18:38:41;3.70;99.90
12746;DHT22;6437;53.686;10.030;2023-02-08T18:41:44;3.60;99.90
12746;DHT22;6437;53.686;10.030;2023-02-08T18:44:46;3.60;99.90
12746;DHT22;6437;53.686;10.030;2023-02-08T18:47:49;3.50;99.90
12746;DHT22;6437;53.686;10.030;2023-02-08T18:50:54;3.50;99.90
12746;DHT22;6437;53.686;10.030;2023-02-08T18:53:56;3.50;99.90
12746;DHT22;6437;53.686;10.030;2023-02-08T18:56:58;3.40;99.90
12746;DHT22;6437;53.686;10.030;2023-02-08T19:00:00;3.40;99.90
12746;DHT22;6437;53.686;10.030;2023-02-08T19:03:03;3.40;99.90
12746;DHT22;6437;53.686;10.030;2023-02-08T19:06:06;3.40;99.90
12746;DHT22;6437;53.686;10.030;2023-02-08T19:09:09;3.40;99.90
12746;DHT22;6437;53.686;10.030;2023-02-08T19:12:10;2.60;99.90
12746;DHT22;6437;53.686;10.030;2023-02-08T19:15:14;3.20;99.90
12746;DHT22;6437;53.686;10.030;2023-02-08T19:18:17;3.20;99.90
12746;DHT22;6437;53.686;10.030;2023-02-08T19:21:19;3.20;99.90
12746;DHT22;6437;53.686;10.030;2023-02-08T19:24:21;3.20;99.90
12746;DHT22;6437;53.686;10.030;2023-02-08T19:27:23;3.10;99.90
12746;DHT22;6437;53.686;10.030;2023-02-08T19:30:25;3.10;99.90
12746;DHT22;6437;53.686;10.030;2023-02-08T19:33:28;3.10;99.90
12746;DHT22;6437;53.686;10.030;2023-02-08T19:36:32;3.00;99.90
12746;DHT22;6437;53.686;10.030;2023-02-08T19:39:34;3.00;99.90
12746;DHT22;6437;53.686;10.030;2023-02-08T19:42:35;2.90;99.90
12746;DHT22;6437;53.686;10.030;2023-02-08T19:45:37;2.90;99.90